Time;durP1;ratioP1;P1;durP2;ratioP2;P2;SDS_P1;SDS_P2;PMS_P1;PMS_P2;Temp;Humidity;BMP_temperature;BMP_pressure;BME280_temperature;BME280_humidity;BME280_pressure;Samples;Min_cycle;Max_cycle;Signal;HPM_P1;HPM_P2
2021/07/22 00:02:26;;;;;;;18.35;4.03;;;17.00;99.90;;;;;;5088892;28;20097;-64
2021/07/22 00:04:52;;;;;;;14.57;3.80;;;17.00;99.90;;;;;;5086548;28;20068;-64
2021/07/22 00:07:18;;;;;;;20.27;5.25;;;17.00;99.90;;;;;;5089017;28;20032;-63
2021/07/22 00:09:44;;;;;;;22.52;5.25;;;17.00;99.90;;;;;;5070566;28;20035;-63
2021/07/22 00:12:14;;;;;;;22.88;5.28;;;17.00;99.90;;;;;;5088221;28;20399;-64
2021/07/22 00:14:40;;;;;;;;;;;17.00;99.90;;;;;;5089091;28;20098;-64
2021/07/22 00:17:07;;;;;;;15.88;4.10;;;16.90;99.90;;;;;;5088740;28;19994;-65
2021/07/22 00:19:33;;;;;;;16.67;4.10;;;16.90;99.90;;;;;;5088930;28;20125;-64
2021/07/22 00:22:00;;;;;;;19.25;5.10;;;17.00;99.90;;;;;;5053479;28;20043;-64
2021/07/22 00:24:26;;;;;;;15.25;4.53;;;17.00;99.90;;;;;;5088001;28;20032;-64
2021/07/22 00:26:52;;;;;;;19.83;4.20;;;17.00;99.90;;;;;;5088516;28;20119;-64
2021/07/22 00:29:18;;;;;;;16.23;4.00;;;16.90;99.90;;;;;;5088564;28;20396;-64
2021/07/22 00:31:44;;;;;;;14.93;4.20;;;17.00;99.90;;;;;;5087887;28;20504;-64
2021/07/22 00:34:10;;;;;;;14.73;4.00;;;17.00;99.90;;;;;;5088559;28;20028;-64
2021/07/22 00:36:35;;;;;;;15.23;3.83;;;17.00;99.90;;;;;;5088455;28;20031;-63
2021/07/22 00:39:02;;;;;;;15.10;4.63;;;16.90;99.90;;;;;;5069823;28;20046;-65
2021/07/22 00:41:28;;;;;;;17.30;3.95;;;17.00;99.90;;;;;;5088071;28;20082;-65
2021/07/22 00:43:53;;;;;;;18.92;4.95;;;16.90;99.90;;;;;;5088032;28;20566;-65
2021/07/22 00:46:19;;;;;;;19.45;4.43;;;16.90;99.90;;;;;;5088091;28;20115;-65
2021/07/22 00:48:45;;;;;;;18.50;4.85;;;16.90;99.90;;;;;;5088065;28;20036;-65
2021/07/22 00:51:11;;;;;;;18.42;4.90;;;16.90;99.90;;;;;;5087934;28;20024;-65
2021/07/22 00:53:37;;;;;;;14.18;4.13;;;16.90;99.90;;;;;;5087891;28;20036;-65
2021/07/22 00:56:04;;;;;;;21.88;4.60;;;16.90;99.90;;;;;;5087564;28;20525;-65
2021/07/22 00:58:29;;;;;;;23.20;5.07;;;16.90;99.90;;;;;;5069176;28;20462;-64
2021/07/22 01:00:55;;;;;;;22.10;4.43;;;17.00;99.90;;;;;;5087999;28;20074;-65
2021/07/22 01:03:21;;;;;;;16.55;4.40;;;16.90;99.90;;;;;;5087710;28;20024;-64
2021/07/22 01:05:47;;;;;;;14.13;4.68;;;16.90;99.90;;;;;;5069323;28;20024;-65
2021/07/22 01:08:12;;;;;;;13.25;4.53;;;16.90;99.90;;;;;;5087969;28;20023;-65
2021/07/22 01:10:39;;;;;;;15.05;4.70;;;16.90;99.90;;;;;;5088028;28;20355;-65
2021/07/22 01:13:04;;;;;;;18.35;4.35;;;16.90;99.90;;;;;;5088014;28;20075;-65
2021/07/22 01:15:31;;;;;;;15.40;4.50;;;16.90;99.90;;;;;;5087585;28;20354;-64
2021/07/22 01:17:57;;;;;;;15.60;4.45;;;16.80;99.90;;;;;;5087977;28;20039;-65
2021/07/22 01:20:26;;;;;;;10.43;4.20;;;16.90;99.90;;;;;;5087981;28;20109;-65
2021/07/22 01:22:54;;;;;;;15.50;4.65;;;16.80;99.90;;;;;;5087470;28;20024;-65
2021/07/22 01:25:20;;;;;;;15.35;4.05;;;16.80;99.90;;;;;;5087503;28;20027;-66
2021/07/22 01:27:46;;;;;;;13.32;4.68;;;16.80;99.90;;;;;;5087139;28;20055;-65
2021/07/22 01:30:13;;;;;;;20.15;5.20;;;16.80;99.90;;;;;;5087767;28;20040;-65
2021/07/22 01:32:40;;;;;;;17.15;4.65;;;16.80;99.90;;;;;;5087780;28;20545;-65
2021/07/22 01:35:07;;;;;;;16.08;4.68;;;16.80;99.90;;;;;;5087957;28;20028;-65
2021/07/22 01:37:33;;;;;;;15.32;4.75;;;16.90;99.90;;;;;;5088251;28;20093;-65
2021/07/22 01:39:59;;;;;;;16.02;4.55;;;16.80;99.90;;;;;;5091478;28;20024;-66
2021/07/22 01:42:25;;;;;;;14.43;4.72;;;16.80;99.90;;;;;;5091392;28;20050;-65
2021/07/22 01:44:51;;;;;;;11.45;4.03;;;16.80;99.90;;;;;;5091559;28;20034;-65
2021/07/22 01:47:17;;;;;;;23.33;5.10;;;16.80;99.90;;;;;;5091479;28;20034;-65
2021/07/22 01:49:43;;;;;;;13.48;4.47;;;16.80;99.90;;;;;;5091610;28;20132;-65
2021/07/22 01:52:10;;;;;;;16.42;4.93;;;16.80;99.90;;;;;;5091634;28;20080;-64
2021/07/22 01:54:36;;;;;;;15.82;4.68;;;16.80;99.90;;;;;;5091315;28;20020;-65
2021/07/22 01:57:02;;;;;;;14.98;4.20;;;16.80;99.90;;;;;;5091416;28;20525;-65
2021/07/22 01:59:35;;;;;;;12.55;4.72;;;16.80;99.90;;;;;;5091571;28;20457;-67
2021/07/22 02:02:05;;;;;;;17.40;5.00;;;16.80;99.90;;;;;;5090948;28;20026;-65
2021/07/22 02:04:32;;;;;;;20.15;5.35;;;16.70;99.90;;;;;;5091273;28;20107;-65
2021/07/22 02:06:58;;;;;;;14.98;4.53;;;16.70;99.90;;;;;;5090791;28;20034;-65
2021/07/22 02:09:24;;;;;;;11.93;4.32;;;16.70;99.90;;;;;;5072473;28;20032;-65
2021/07/22 02:11:55;;;;;;;15.15;4.68;;;16.70;99.90;;;;;;5072485;28;20146;-65
2021/07/22 02:14:22;;;;;;;20.23;5.50;;;16.70;99.90;;;;;;5090796;28;20032;-65
2021/07/22 02:16:48;;;;;;;14.40;4.45;;;16.60;99.90;;;;;;5090473;28;20471;-65
2021/07/22 02:19:14;;;;;;;12.90;4.10;;;16.60;99.90;;;;;;5090904;28;20081;-65
2021/07/22 02:21:41;;;;;;;16.35;5.07;;;16.60;99.90;;;;;;5090735;28;20036;-65
2021/07/22 02:24:08;;;;;;;12.82;5.10;;;16.60;99.90;;;;;;5090538;28;20028;-65
2021/07/22 02:26:34;;;;;;;14.65;4.55;;;16.60;99.90;;;;;;5090176;28;20545;-65
2021/07/22 02:29:00;;;;;;;13.88;5.00;;;16.60;99.90;;;;;;5090624;28;20062;-65
2021/07/22 02:31:26;;;;;;;14.45;6.10;;;16.50;99.90;;;;;;5090673;28;20660;-65
2021/07/22 02:33:52;;;;;;;17.13;6.40;;;16.50;99.90;;;;;;5090451;28;20040;-64
2021/07/22 02:36:18;;;;;;;15.95;5.78;;;16.50;99.90;;;;;;5090595;28;20036;-65
2021/07/22 02:38:44;;;;;;;10.13;4.70;;;16.50;99.90;;;;;;5090820;28;20065;-65
2021/07/22 02:41:10;;;;;;;12.13;4.93;;;16.50;99.90;;;;;;5090434;28;20519;-65
2021/07/22 02:43:35;;;;;;;15.18;5.18;;;16.40;99.90;;;;;;5071937;28;20222;-65
2021/07/22 02:46:06;;;;;;;11.00;5.07;;;16.50;99.90;;;;;;5090123;28;20449;-66
2021/07/22 02:48:32;;;;;;;12.77;4.70;;;16.40;99.90;;;;;;5089868;28;20580;-65
2021/07/22 02:51:02;;;;;;;9.10;4.22;;;16.40;99.90;;;;;;5089483;28;20036;-65
2021/07/22 02:53:28;;;;;;;10.25;4.25;;;16.30;99.90;;;;;;5090333;28;20059;-64
2021/07/22 02:55:55;;;;;;;11.63;4.75;;;16.20;99.90;;;;;;5090476;28;20023;-64
2021/07/22 02:58:21;;;;;;;16.50;5.63;;;16.20;99.90;;;;;;5090040;28;20062;-65
2021/07/22 03:00:47;;;;;;;13.40;6.15;;;16.20;99.90;;;;;;5089724;28;20463;-65
2021/07/22 03:03:13;;;;;;;9.13;4.45;;;16.20;99.90;;;;;;5089774;28;20047;-65
2021/07/22 03:05:38;;;;;;;9.40;4.80;;;16.20;99.90;;;;;;5089710;28;20020;-65
2021/07/22 03:08:04;;;;;;;12.88;5.35;;;16.20;99.90;;;;;;5089821;28;20036;-65
2021/07/22 03:10:30;;;;;;;14.40;5.05;;;16.20;99.90;;;;;;5090177;28;20166;-65
2021/07/22 03:12:56;;;;;;;10.73;4.80;;;16.20;99.90;;;;;;5089852;28;20035;-65
2021/07/22 03:15:22;;;;;;;10.70;4.88;;;16.20;99.90;;;;;;5089627;28;20023;-65
2021/07/22 03:17:48;;;;;;;11.68;5.20;;;16.30;99.90;;;;;;5089092;28;20124;-65
2021/07/22 03:20:14;;;;;;;14.32;5.75;;;16.30;99.90;;;;;;5071106;28;20070;-65
2021/07/22 03:22:40;;;;;;;15.25;5.90;;;16.30;99.90;;;;;;5089523;28;20756;-65
2021/07/22 03:25:07;;;;;;;16.63;5.85;;;16.30;99.90;;;;;;5088883;28;20352;-65
2021/07/22 03:27:33;;;;;;;12.63;5.07;;;16.30;99.90;;;;;;5089076;28;20143;-65
2021/07/22 03:29:58;;;;;;;18.02;5.05;;;16.30;99.90;;;;;;5089691;28;20073;-66
2021/07/22 03:32:24;;;;;;;14.77;5.72;;;16.40;99.90;;;;;;5089415;28;20138;-65
2021/07/22 03:34:50;;;;;;;14.20;5.47;;;16.30;99.90;;;;;;5089466;28;20024;-65
2021/07/22 03:37:16;;;;;;;10.77;5.00;;;16.40;99.90;;;;;;5088897;28;20127;-65
2021/07/22 03:39:42;;;;;;;13.00;5.13;;;16.40;99.90;;;;;;5070987;28;20038;-66
2021/07/22 03:42:08;;;;;;;11.40;5.38;;;16.30;99.90;;;;;;5089326;28;20027;-65
2021/07/22 03:44:35;;;;;;;12.15;4.43;;;16.30;99.90;;;;;;5089091;28;20019;-65
2021/07/22 03:47:01;;;;;;;10.68;4.95;;;16.30;99.90;;;;;;5089276;28;20032;-65
2021/07/22 03:49:26;;;;;;;7.97;4.28;;;16.30;99.90;;;;;;5089198;28;20031;-65
2021/07/22 03:51:56;;;;;;;12.30;5.00;;;16.30;99.90;;;;;;5088712;28;20498;-65
2021/07/22 03:54:22;;;;;;;14.05;4.85;;;16.30;99.90;;;;;;5088761;28;20051;-65
2021/07/22 03:56:48;;;;;;;16.83;4.82;;;16.40;99.90;;;;;;5088916;28;20487;-65
2021/07/22 03:59:15;;;;;;;11.93;4.78;;;16.50;99.90;;;;;;5088472;28;20042;-65
2021/07/22 04:01:41;;;;;;;16.00;4.93;;;16.50;99.90;;;;;;5088924;28;20147;-65
2021/07/22 04:04:07;;;;;;;13.18;4.57;;;16.50;99.90;;;;;;5088937;28;20636;-65
2021/07/22 04:06:35;;;;;;;10.02;4.10;;;16.50;99.90;;;;;;5088665;28;20392;-66
2021/07/22 04:09:01;;;;;;;13.18;4.47;;;16.50;99.90;;;;;;5088399;28;20538;-65
2021/07/22 04:11:27;;;;;;;13.52;4.95;;;16.60;99.90;;;;;;5088195;28;20032;-65
2021/07/22 04:13:53;;;;;;;13.35;4.32;;;16.60;99.90;;;;;;5088505;28;20050;-65
2021/07/22 04:16:19;;;;;;;12.75;4.28;;;16.70;99.90;;;;;;5088447;28;20024;-66
2021/07/22 04:18:45;;;;;;;10.57;4.43;;;16.70;99.90;;;;;;5088360;28;20031;-65
2021/07/22 04:21:10;;;;;;;12.00;4.78;;;16.70;99.90;;;;;;5088243;28;20032;-65
2021/07/22 04:23:36;;;;;;;8.27;4.18;;;16.70;99.90;;;;;;5070423;28;20476;-64
2021/07/22 04:26:02;;;;;;;12.52;4.25;;;16.90;99.90;;;;;;5088529;28;20084;-65
2021/07/22 04:28:28;;;;;;;12.25;4.25;;;16.80;99.90;;;;;;5088439;28;20473;-65
2021/07/22 04:30:54;;;;;;;10.93;4.93;;;16.80;99.90;;;;;;5087703;28;20066;-65
2021/07/22 04:33:20;;;;;;;17.23;4.10;;;16.80;99.90;;;;;;5088182;28;20082;-65
2021/07/22 04:35:46;;;;;;;19.63;5.15;;;16.90;99.90;;;;;;5087790;28;20706;-65
2021/07/22 04:38:11;;;;;;;12.43;4.20;;;16.80;99.90;;;;;;5088222;28;20084;-66
2021/07/22 04:40:37;;;;;;;14.15;4.75;;;16.80;99.90;;;;;;5088301;28;20144;-65
2021/07/22 04:43:03;;;;;;;10.15;3.70;;;16.90;99.90;;;;;;5088631;28;20604;-65
2021/07/22 04:45:29;;;;;;;17.48;5.43;;;16.90;99.90;;;;;;5088188;28;20410;-65
2021/07/22 04:47:55;;;;;;;15.52;4.63;;;16.90;99.90;;;;;;5069224;28;20035;-65
2021/07/22 04:50:21;;;;;;;18.92;5.05;;;16.90;99.90;;;;;;5087915;28;20024;-65
2021/07/22 04:52:46;;;;;;;17.65;4.38;;;16.90;99.90;;;;;;5069725;28;20083;-65
2021/07/22 04:55:12;;;;;;;10.52;4.38;;;17.00;99.90;;;;;;5087868;28;20028;-65
2021/07/22 04:57:38;;;;;;;14.45;4.15;;;17.00;99.90;;;;;;5088002;28;20067;-65
2021/07/22 05:00:05;;;;;;;13.88;4.15;;;17.00;99.90;;;;;;5087373;28;20024;-66
2021/07/22 05:02:31;;;;;;;20.50;4.43;;;17.00;99.90;;;;;;5087573;28;20491;-65
2021/07/22 05:04:57;;;;;;;12.80;3.78;;;17.00;99.90;;;;;;5087909;28;20140;-64
2021/07/22 05:07:23;;;;;;;13.55;4.43;;;17.10;99.90;;;;;;5087924;28;20208;-64
2021/07/22 05:09:49;;;;;;;9.98;4.18;;;17.00;99.90;;;;;;5087812;28;20016;-64
2021/07/22 05:12:15;;;;;;;14.95;4.22;;;17.10;99.90;;;;;;5087803;28;20032;-64
2021/07/22 05:14:41;;;;;;;10.90;3.55;;;17.20;99.90;;;;;;5091468;28;20032;-65
2021/07/22 05:17:07;;;;;;;18.20;5.40;;;17.20;99.90;;;;;;5091933;28;20032;-64
2021/07/22 05:19:33;;;;;;;13.27;3.85;;;17.20;99.90;;;;;;5092200;28;20155;-64
2021/07/22 05:21:59;;;;;;;18.42;4.68;;;17.20;99.90;;;;;;5092103;28;20077;-65
2021/07/22 05:24:25;;;;;;;19.90;4.72;;;17.20;99.90;;;;;;5073236;28;20115;-64
2021/07/22 05:26:51;;;;;;;20.95;4.45;;;17.30;99.90;;;;;;5091453;28;20020;-65
2021/07/22 05:29:17;;;;;;;13.98;3.95;;;17.30;99.90;;;;;;5091732;28;20032;-65
2021/07/22 05:31:44;;;;;;;15.75;4.45;;;17.30;99.90;;;;;;5092082;28;20398;-65
2021/07/22 05:34:10;;;;;;;13.43;4.05;;;17.30;99.90;;;;;;5056448;28;20035;-65
2021/07/22 05:36:36;;;;;;;12.63;3.97;;;17.30;99.90;;;;;;5091271;28;20460;-65
2021/07/22 05:39:03;;;;;;;14.55;4.25;;;17.30;99.90;;;;;;5091755;28;20031;-65
2021/07/22 05:41:29;;;;;;;13.90;3.78;;;17.30;99.90;;;;;;5091608;28;20031;-65
2021/07/22 05:43:55;;;;;;;15.07;4.07;;;17.40;99.90;;;;;;5091758;28;20059;-66
2021/07/22 05:46:21;;;;;;;11.45;3.63;;;17.40;99.90;;;;;;5091323;28;20451;-65
2021/07/22 05:48:48;;;;;;;13.48;4.07;;;17.50;99.90;;;;;;5091539;28;20028;-65
2021/07/22 05:51:14;;;;;;;17.00;4.95;;;17.50;99.90;;;;;;5091467;28;20043;-65
2021/07/22 05:53:40;;;;;;;13.82;3.60;;;17.60;99.90;;;;;;5055817;28;20036;-66
2021/07/22 05:56:06;;;;;;;21.27;5.00;;;17.60;99.90;;;;;;5091258;28;20034;-65
2021/07/22 05:58:32;;;;;;;16.42;4.75;;;17.60;99.90;;;;;;5091690;28;20415;-65
2021/07/22 06:00:58;;;;;;;10.88;3.67;;;17.60;99.90;;;;;;5090920;28;20027;-65
2021/07/22 06:03:23;;;;;;;14.57;3.90;;;17.70;99.90;;;;;;5090957;28;20036;-65
2021/07/22 06:05:49;;;;;;;12.38;3.83;;;17.70;99.90;;;;;;5090764;28;20031;-66
2021/07/22 06:08:15;;;;;;;15.88;4.18;;;17.60;99.90;;;;;;5072657;28;20498;-65
2021/07/22 06:10:42;;;;;;;15.57;3.67;;;17.60;99.90;;;;;;5091034;28;20510;-65
2021/07/22 06:13:08;;;;;;;10.90;3.78;;;17.60;99.90;;;;;;5090333;28;20486;-65
2021/07/22 06:15:34;;;;;;;14.45;3.63;;;17.70;99.90;;;;;;5090951;28;20020;-64
2021/07/22 06:18:00;;;;;;;16.00;3.83;;;17.60;99.90;;;;;;5090862;28;20433;-66
2021/07/22 06:20:25;;;;;;;11.35;3.00;;;17.60;99.90;;;;;;5090368;28;20038;-64
2021/07/22 06:22:51;;;;;;;17.40;3.38;;;17.60;99.90;;;;;;5090772;28;20024;-66
2021/07/22 06:25:17;;;;;;;12.45;3.85;;;17.70;99.90;;;;;;5090545;28;20031;-65
2021/07/22 06:27:44;;;;;;;14.90;3.53;;;17.70;99.90;;;;;;5090346;28;20523;-64
2021/07/22 06:30:11;;;;;;;11.90;3.83;;;17.70;99.90;;;;;;5090678;28;20334;-65
2021/07/22 06:32:37;;;;;;;11.63;3.65;;;17.70;99.90;;;;;;5090493;28;20048;-65
2021/07/22 06:35:04;;;;;;;13.73;3.70;;;17.70;99.90;;;;;;5090567;28;20034;-65
2021/07/22 06:37:44;;;;;;;13.07;3.78;;;17.70;99.90;;;;;;5090794;28;20449;-65
2021/07/22 06:40:11;;;;;;;8.90;3.20;;;17.70;99.90;;;;;;5090185;28;20071;-64
2021/07/22 06:42:37;;;;;;;13.38;3.53;;;17.80;99.90;;;;;;5090268;28;20036;-65
2021/07/22 06:45:03;;;;;;;12.40;3.72;;;17.70;99.90;;;;;;5090042;28;20028;-65
2021/07/22 06:47:29;;;;;;;14.38;4.10;;;17.70;99.90;;;;;;5090460;28;20024;-65
2021/07/22 06:49:55;;;;;;;13.68;3.42;;;17.80;99.90;;;;;;5090511;28;20100;-65
2021/07/22 06:52:21;;;;;;;9.60;3.05;;;17.70;99.90;;;;;;5089759;28;20358;-64
2021/07/22 06:54:46;;;;;;;11.95;3.00;;;17.70;99.90;;;;;;5090235;28;20432;-65
2021/07/22 06:57:12;;;;;;;12.70;3.55;;;17.80;99.90;;;;;;5089740;28;20488;-65
2021/07/22 06:59:38;;;;;;;11.38;2.88;;;17.80;99.90;;;;;;5071491;28;20650;-65
2021/07/22 07:02:04;;;;;;;10.18;3.10;;;17.70;99.90;;;;;;5089916;28;20563;-65
2021/07/22 07:04:29;;;;;;;6.63;2.67;;;17.70;99.90;;;;;;5090135;28;20027;-66
2021/07/22 07:06:55;;;;;;;13.57;3.28;;;17.70;99.90;;;;;;5089651;28;20051;-65
2021/07/22 07:09:21;;;;;;;13.02;3.15;;;17.80;99.90;;;;;;5090041;28;20458;-64
2021/07/22 07:11:47;;;;;;;12.75;3.20;;;17.80;99.90;;;;;;5089995;28;20027;-65
2021/07/22 07:14:12;;;;;;;8.38;2.63;;;17.80;99.90;;;;;;5089284;28;20130;-65
2021/07/22 07:16:40;;;;;;;15.20;3.17;;;17.90;99.90;;;;;;5089740;28;20028;-65
2021/07/22 07:19:07;;;;;;;14.15;3.33;;;17.90;99.90;;;;;;5089628;28;20090;-64
2021/07/22 07:21:37;;;;;;;7.78;2.42;;;17.90;99.90;;;;;;5089658;28;20050;-64
2021/07/22 07:24:04;;;;;;;9.00;2.88;;;17.90;99.90;;;;;;5089678;28;20055;-64
2021/07/22 07:26:30;;;;;;;10.52;2.58;;;17.90;99.90;;;;;;5089822;28;20069;-64
2021/07/22 07:28:56;;;;;;;8.45;2.75;;;17.90;99.90;;;;;;5089618;28;20568;-65
2021/07/22 07:31:22;;;;;;;15.48;2.97;;;18.00;99.90;;;;;;5089309;28;20036;-65
2021/07/22 07:33:49;;;;;;;11.73;3.22;;;18.10;99.90;;;;;;5089415;28;20118;-65
2021/07/22 07:36:15;;;;;;;10.70;3.03;;;18.20;99.90;;;;;;5088632;28;20035;-65
2021/07/22 07:38:41;;;;;;;11.88;2.88;;;18.40;99.90;;;;;;5088653;28;20036;-64
2021/07/22 07:41:06;;;;;;;7.28;2.10;;;18.30;99.90;;;;;;5089296;28;20478;-64
2021/07/22 07:43:32;;;;;;;22.40;3.65;;;18.30;99.90;;;;;;5088811;28;20111;-64
2021/07/22 07:45:58;;;;;;;7.43;2.80;;;18.40;99.90;;;;;;5089376;28;20024;-64
2021/07/22 07:48:24;;;;;;;10.32;3.63;;;18.40;99.90;;;;;;5089386;28;20228;-64
2021/07/22 07:50:50;;;;;;;12.20;3.38;;;18.30;99.90;;;;;;5088838;28;20518;-65
2021/07/22 07:53:18;;;;;;;8.90;3.13;;;18.40;99.90;;;;;;5070819;28;20036;-66
2021/07/22 07:55:44;;;;;;;8.60;2.60;;;18.30;99.90;;;;;;5089159;28;20035;-66
2021/07/22 07:58:10;;;;;;;8.32;3.25;;;18.40;99.90;;;;;;5088846;28;20031;-63
2021/07/22 08:00:37;;;;;;;11.85;2.78;;;18.40;99.90;;;;;;5088786;28;20032;-64
2021/07/22 08:03:03;;;;;;;8.55;3.05;;;18.40;99.90;;;;;;5088174;28;20509;-64
2021/07/22 08:05:29;;;;;;;9.93;2.90;;;18.50;99.90;;;;;;5088814;28;20402;-64
2021/07/22 08:07:55;;;;;;;12.13;3.15;;;18.60;99.90;;;;;;5070418;28;20088;-64
2021/07/22 08:10:21;;;;;;;8.23;2.65;;;18.70;99.90;;;;;;5088482;28;20032;-65
2021/07/22 08:12:47;;;;;;;8.88;2.90;;;18.70;99.90;;;;;;5088386;28;20074;-65
2021/07/22 08:15:14;;;;;;;10.38;2.83;;;18.70;99.90;;;;;;5088163;28;20337;-65
2021/07/22 08:17:41;;;;;;;12.65;3.28;;;18.70;99.90;;;;;;5088169;28;20034;-64
2021/07/22 08:20:09;;;;;;;15.73;3.45;;;18.80;99.90;;;;;;5088349;28;20066;-64
2021/07/22 08:22:35;;;;;;;11.55;3.50;;;19.00;99.90;;;;;;5088337;28;20897;-64
2021/07/22 08:25:01;;;;;;;11.23;3.22;;;19.00;99.90;;;;;;5069763;28;20431;-63
2021/07/22 08:27:28;;;;;;;11.48;2.90;;;19.10;99.90;;;;;;5087959;28;20104;-65
2021/07/22 08:29:55;;;;;;;14.10;3.83;;;19.20;99.90;;;;;;5088876;28;20435;-63
2021/07/22 08:32:22;;;;;;;11.48;3.00;;;19.20;99.90;;;;;;5087988;28;20389;-63
2021/07/22 08:34:48;;;;;;;8.75;2.95;;;19.20;99.90;;;;;;5088188;28;20108;-64
2021/07/22 08:37:15;;;;;;;9.60;2.95;;;19.10;99.90;;;;;;5088116;28;20028;-65
2021/07/22 08:39:43;;;;;;;12.90;3.13;;;19.00;99.90;;;;;;5087913;28;20028;-66
2021/07/22 08:42:11;;;;;;;10.70;3.28;;;19.10;99.90;;;;;;5088072;28;20035;-66
2021/07/22 08:44:40;;;;;;;10.82;2.85;;;19.20;99.90;;;;;;5088229;28;20032;-64
2021/07/22 08:47:08;;;;;;;9.35;2.97;;;19.50;99.90;;;;;;5087390;28;20028;-64
2021/07/22 08:49:35;;;;;;;10.15;3.35;;;19.90;99.90;;;;;;5087881;28;20433;-64
2021/07/22 08:52:05;;;;;;;10.95;2.78;;;20.20;99.90;;;;;;5087663;28;20402;-64
2021/07/22 08:54:31;;;;;;;11.55;3.22;;;20.30;99.90;;;;;;5069421;28;20035;-64
2021/07/22 08:57:00;;;;;;;7.43;2.58;;;20.20;99.90;;;;;;5087513;28;20344;-64
2021/07/22 08:59:28;;;;;;;9.70;2.55;;;20.00;99.90;;;;;;5069275;28;20477;-64
2021/07/22 09:01:56;;;;;;;12.10;2.60;;;20.00;99.90;;;;;;5088014;28;20160;-64
2021/07/22 09:04:21;;;;;;;11.65;2.97;;;20.10;99.90;;;;;;5087669;28;20032;-63
2021/07/22 09:06:47;;;;;;;8.00;2.15;;;20.10;99.90;;;;;;5088005;28;20411;-64
2021/07/22 09:09:15;;;;;;;17.85;3.10;;;20.00;99.90;;;;;;5088348;28;20453;-64
2021/07/22 09:11:59;;;;;;;12.35;2.95;;;20.10;99.90;;;;;;5088214;28;20511;-63
2021/07/22 09:14:27;;;;;;;11.52;2.55;;;20.10;99.90;;;;;;5087313;28;20039;-63
2021/07/22 09:16:53;;;;;;;7.25;2.15;;;20.10;99.90;;;;;;5088061;28;20035;-65
2021/07/22 09:19:35;;;;;;;10.23;2.85;;;20.30;99.90;;;;;;5087640;28;20039;-64
2021/07/22 09:22:02;;;;;;;11.63;3.15;;;20.30;99.90;;;;;;5087534;28;20028;-65
2021/07/22 09:24:28;;;;;;;7.95;2.50;;;20.30;99.90;;;;;;5087620;28;20081;-64
2021/07/22 09:26:56;;;;;;;12.90;3.00;;;20.20;99.90;;;;;;5087759;28;20499;-63
2021/07/22 09:29:22;;;;;;;9.43;2.65;;;20.20;99.90;;;;;;5087169;28;20058;-63
2021/07/22 09:31:48;;;;;;;9.43;2.88;;;20.30;99.90;;;;;;5087914;28;20132;-64
2021/07/22 09:34:23;;;;;;;9.48;2.90;;;20.40;99.90;;;;;;5087261;28;20031;-65
2021/07/22 09:36:49;;;;;;;13.77;3.45;;;20.70;99.90;;;;;;5087551;28;20107;-65
2021/07/22 09:39:30;;;;;;;11.88;2.95;;;20.90;99.90;;;;;;5087920;28;20173;-65
2021/07/22 09:41:57;;;;;;;7.78;2.42;;;20.90;99.90;;;;;;5087374;28;20265;-65
2021/07/22 09:44:37;;;;;;;9.00;2.70;;;21.10;99.90;;;;;;5087208;28;20023;-65
2021/07/22 09:47:08;;;;;;;10.18;2.88;;;21.10;99.90;;;;;;5087562;28;20082;-64
2021/07/22 09:49:36;;;;;;;12.35;3.13;;;21.50;99.90;;;;;;5087777;28;20024;-64
2021/07/22 09:52:03;;;;;;;9.50;2.60;;;21.50;99.90;;;;;;5069028;28;20479;-65
2021/07/22 09:54:37;;;;;;;15.65;3.75;;;21.30;99.90;;;;;;5087040;28;20046;-65
2021/07/22 09:57:12;;;;;;;14.40;3.55;;;21.30;99.90;;;;;;5087314;28;20024;-64
2021/07/22 09:59:38;;;;;;;10.80;3.28;;;21.10;99.90;;;;;;5089261;28;20054;-65
2021/07/22 10:02:05;;;;;;;9.15;3.45;;;21.00;99.90;;;;;;5091175;28;20115;-64
2021/07/22 10:04:32;;;;;;;9.45;3.45;;;21.00;99.90;;;;;;5090893;28;20092;-65
2021/07/22 10:07:00;;;;;;;10.10;3.55;;;21.00;99.90;;;;;;5091114;28;20032;-65
2021/07/22 10:09:32;;;;;;;9.05;3.20;;;21.00;99.90;;;;;;5090895;28;20039;-65
2021/07/22 10:11:58;;;;;;;9.88;2.95;;;21.20;99.90;;;;;;5091083;28;20028;-65
2021/07/22 10:14:24;;;;;;;12.13;3.58;;;21.20;99.90;;;;;;5090881;28;20028;-64
2021/07/22 10:16:51;;;;;;;16.38;4.10;;;21.40;99.90;;;;;;5091048;28;20134;-65
2021/07/22 10:19:18;;;;;;;16.88;4.47;;;21.30;99.90;;;;;;5090914;28;20027;-65
2021/07/22 10:21:44;;;;;;;8.02;3.17;;;21.20;99.90;;;;;;5090774;28;20035;-64
2021/07/22 10:24:10;;;;;;;12.57;3.88;;;21.10;99.90;;;;;;5091143;28;20027;-64
2021/07/22 10:26:40;;;;;;;12.40;3.67;;;21.20;99.90;;;;;;5091036;28;20100;-64
2021/07/22 10:29:09;;;;;;;11.45;4.07;;;21.40;99.90;;;;;;5090564;28;20082;-65
2021/07/22 10:31:40;;;;;;;9.98;3.92;;;21.50;99.90;;;;;;5090544;28;20500;-65
2021/07/22 10:34:10;;;;;;;14.45;4.32;;;21.60;99.90;;;;;;5090964;28;20040;-64
2021/07/22 10:36:37;;;;;;;14.02;3.65;;;21.70;99.90;;;;;;5090491;28;20501;-65
2021/07/22 10:39:03;;;;;;;22.42;4.38;;;22.00;99.90;;;;;;5090585;28;20020;-65
2021/07/22 10:41:37;;;;;;;11.52;3.75;;;21.90;99.90;;;;;;5090194;28;20035;-65
2021/07/22 10:44:31;;;;;;;13.93;3.88;;;21.90;99.90;;;;;;5090678;28;20424;-65
2021/07/22 10:46:58;;;;;;;14.25;4.07;;;22.40;99.90;;;;;;5071882;28;20062;-65
2021/07/22 10:49:40;;;;;;;12.60;3.50;;;22.50;99.90;;;;;;5090294;28;20082;-65
2021/07/22 10:52:07;;;;;;;12.77;4.20;;;22.50;99.90;;;;;;5089854;28;20028;-65
2021/07/22 10:54:39;;;;;;;15.25;4.43;;;22.40;99.90;;;;;;5089940;28;20047;-65
2021/07/22 10:57:05;;;;;;;12.77;3.97;;;22.40;99.90;;;;;;5071141;28;20462;-65
2021/07/22 11:00:01;;;;;;;10.90;4.13;;;22.30;99.90;;;;;;5090134;28;20553;-65
2021/07/22 11:02:44;;;;;;;11.43;4.32;;;22.50;99.90;;;;;;5064556;28;20596;-65
2021/07/22 11:05:31;;;;;;;11.90;4.25;;;22.60;99.90;;;;;;5089755;28;20127;-65
2021/07/22 11:08:22;;;;;;;11.88;4.55;;;22.30;99.90;;;;;;5089440;28;20027;-66
2021/07/22 11:10:56;;;;;;;9.88;3.63;;;22.30;99.90;;;;;;5070291;28;20614;-65
2021/07/22 11:13:38;;;;;;;10.57;3.90;;;22.40;99.90;;;;;;5070939;28;20077;-65
2021/07/22 11:16:05;;;;;;;18.77;4.72;;;22.50;99.90;;;;;;5089537;28;20024;-65
2021/07/22 11:18:42;;;;;;;9.02;4.10;;;22.30;99.90;;;;;;5089840;28;20046;-65
2021/07/22 11:21:09;;;;;;;7.35;3.58;;;21.90;99.90;;;;;;5089664;28;20020;-65
2021/07/22 11:23:35;;;;;;;13.25;5.18;;;22.00;99.90;;;;;;5089628;28;20142;-64
2021/07/22 11:26:02;;;;;;;12.88;4.88;;;22.30;99.90;;;;;;5089657;28;20349;-65
2021/07/22 11:28:28;;;;;;;9.68;4.60;;;22.40;99.90;;;;;;5089053;28;20047;-65
2021/07/22 11:31:04;;;;;;;13.77;5.00;;;22.30;99.90;;;;;;5089584;28;20031;-65
2021/07/22 11:33:31;;;;;;;15.02;4.85;;;22.70;99.90;;;;;;5089023;28;20039;-65
2021/07/22 11:36:03;;;;;;;8.77;4.35;;;22.90;99.90;;;;;;5088781;28;20111;-65
2021/07/22 11:38:29;;;;;;;12.85;4.85;;;23.00;99.90;;;;;;5089238;28;20573;-65
2021/07/22 11:40:56;;;;;;;17.33;4.45;;;23.10;99.80;;;;;;5089190;28;20111;-65
2021/07/22 11:43:40;;;;;;;12.88;4.20;;;23.20;99.80;;;;;;5088554;28;20360;-64
2021/07/22 11:46:11;;;;;;;11.27;4.43;;;23.30;99.90;;;;;;5089035;28;20027;-65
2021/07/22 11:48:38;;;;;;;9.82;4.35;;;23.20;99.90;;;;;;5088815;28;20078;-65
2021/07/22 11:51:09;;;;;;;12.00;4.35;;;23.10;99.90;;;;;;5088715;28;20130;-65
2021/07/22 11:53:36;;;;;;;12.60;4.47;;;23.30;99.90;;;;;;5089006;28;20139;-65
2021/07/22 11:56:18;;;;;;;12.15;4.50;;;23.40;99.90;;;;;;5089004;28;20024;-66
2021/07/22 11:58:51;;;;;;;10.25;4.50;;;23.30;99.90;;;;;;5089154;28;20553;-64
2021/07/22 12:01:17;;;;;;;8.05;4.40;;;23.10;99.90;;;;;;5088403;28;20055;-65
2021/07/22 12:03:47;;;;;;;14.85;4.82;;;23.00;99.80;;;;;;5088451;28;20038;-65
2021/07/22 12:06:21;;;;;;;11.77;4.97;;;22.80;99.90;;;;;;5088278;28;20070;-65
2021/07/22 12:08:46;;;;;;;15.23;4.93;;;22.70;99.90;;;;;;5088353;28;20027;-65
2021/07/22 12:11:12;;;;;;;14.80;4.93;;;22.70;99.90;;;;;;5088805;28;20441;-65
2021/07/22 12:13:51;;;;;;;16.02;5.60;;;22.50;99.90;;;;;;5088816;28;20036;-65
2021/07/22 12:16:24;;;;;;;10.23;3.97;;;22.50;99.90;;;;;;5088195;28;20588;-65
2021/07/22 12:18:51;;;;;;;22.15;5.30;;;22.80;99.90;;;;;;5088430;28;20033;-65
2021/07/22 12:21:21;;;;;;;10.98;4.97;;;23.30;99.90;;;;;;5088035;28;20035;-65
2021/07/22 12:23:47;;;;;;;;;;;23.60;99.60;;;;;;5089027;28;20039;-65
2021/07/22 12:26:16;;;;;;;13.50;4.70;;;23.70;99.30;;;;;;5088722;28;19916;-65
2021/07/22 12:28:43;;;;;;;12.88;4.70;;;23.40;99.70;;;;;;5088544;28;20095;-65
2021/07/22 12:31:21;;;;;;;13.95;4.75;;;23.30;99.70;;;;;;5069795;28;20089;-64
2021/07/22 12:34:01;;;;;;;13.45;5.30;;;23.10;99.90;;;;;;5088621;28;20067;-65
2021/07/22 12:36:31;;;;;;;12.18;4.85;;;23.00;99.90;;;;;;5087766;28;20546;-65
2021/07/22 12:39:13;;;;;;;8.98;4.70;;;23.40;99.90;;;;;;5069517;28;20512;-65
2021/07/22 12:41:39;;;;;;;13.60;5.07;;;23.60;99.70;;;;;;5068720;28;20530;-65